Time;durP1;ratioP1;P1;durP2;ratioP2;P2;SDS_P1;SDS_P2;PMS_P1;PMS_P2;Temp;Humidity;BMP_temperature;BMP_pressure;BME280_temperature;BME280_humidity;BME280_pressure;Samples;Min_cycle;Max_cycle;Signal;HPM_P1;HPM_P2
2023/01/10 00:02:03;;;;;;;;;;;17.70;57.20;;;;;;5061383;22;43016;-82
2023/01/10 00:07:08;;;;;;;;;;;17.90;57.40;;;;;;5216631;22;43057;-80
2023/01/10 00:09:34;;;;;;;;;;;17.30;57.00;;;;;;5045956;28;43650;-80
2023/01/10 00:14:47;;;;;;;;;;;17.90;57.30;;;;;;5046642;28;42835;-83
2023/01/10 00:17:14;;;;;;;;;;;17.90;57.60;;;;;;5011227;28;43008;-81
2023/01/10 00:19:42;;;;;;;;;;;17.90;57.30;;;;;;5045294;28;43097;-80
2023/01/10 00:22:08;;;;;;;;;;;17.90;57.40;;;;;;5045558;28;42896;-81
2023/01/10 00:24:33;;;;;;;;;;;17.90;57.80;;;;;;5045972;28;42997;-84
2023/01/10 00:26:59;;;;;;;;;;;17.90;57.50;;;;;;5043264;28;42922;-80
2023/01/10 00:29:30;;;;;;;;;;;17.90;57.70;;;;;;5034992;28;43482;-78
2023/01/10 00:31:56;;;;;;;;;;;17.90;57.40;;;;;;5007401;28;43022;-79
2023/01/10 00:34:22;;;;;;;;;;;17.90;57.40;;;;;;5013128;28;44325;-80
2023/01/10 00:36:47;;;;;;;;;;;17.90;57.40;;;;;;5011187;28;42734;-82
2023/01/10 00:39:44;;;;;;;;;;;17.90;57.50;;;;;;5031096;28;42883;-81
2023/01/10 00:48:22;;;;;;;;;;;17.50;57.20;;;;;;5022300;28;42942;-84
2023/01/10 00:50:47;;;;;;;;;;;17.70;57.30;;;;;;5024323;28;42934;-79
2023/01/10 00:53:12;;;;;;;;;;;17.90;57.70;;;;;;5032996;28;43268;-83
2023/01/10 00:55:39;;;;;;;;;;;17.90;57.40;;;;;;5045030;28;43008;-83
2023/01/10 00:58:05;;;;;;;;;;;17.90;58.00;;;;;;5045034;28;42862;-82
2023/01/10 01:00:30;;;;;;;;;;;17.90;57.60;;;;;;5044536;28;42971;-82
2023/01/10 01:02:58;;;;;;;;;;;17.90;57.70;;;;;;5045037;28;42997;-82
2023/01/10 01:05:55;;;;;;;;;;;17.90;57.40;;;;;;5025993;28;44779;-83
2023/01/10 01:08:48;;;;;;;;;;;18.00;57.30;;;;;;5044787;28;42965;-82
2023/01/10 01:11:13;;;;;;;;;;;17.00;57.40;;;;;;5044984;28;43632;-83
2023/01/10 01:13:39;;;;;;;;;;;17.90;57.80;;;;;;5044894;28;42765;-83
2023/01/10 01:16:04;;;;;;;;;;;17.90;57.60;;;;;;5044282;28;42927;-83
2023/01/10 01:18:30;;;;;;;;;;;17.90;57.40;;;;;;5044632;28;42752;-82
2023/01/10 01:20:56;;;;;;;;;;;17.20;57.20;;;;;;5044256;28;43369;-83
2023/01/10 01:23:22;;;;;;;;;;;17.90;57.30;;;;;;5044459;28;42983;-83
2023/01/10 01:28:41;;;;;;;;;;;17.90;57.30;;;;;;6212203;22;43605;-83
2023/01/10 01:31:08;;;;;;;;;;;18.00;57.30;;;;;;5042730;28;43840;-83
2023/01/10 01:33:33;;;;;;;;;;;17.90;57.30;;;;;;5044089;28;43060;-83
2023/01/10 01:35:59;;;;;;;;;;;17.90;57.30;;;;;;5043905;28;43492;-84
2023/01/10 01:38:24;;;;;;;;;;;17.90;57.40;;;;;;5043983;28;42972;-84
2023/01/10 01:47:02;;;;;;;;;;;17.50;57.00;;;;;;5040984;28;42748;-83
2023/01/10 01:49:29;;;;;;;;;;;17.90;57.50;;;;;;5025710;28;42903;-80
2023/01/10 01:51:58;;;;;;;;;;;17.90;57.30;;;;;;5044007;28;42907;-83
2023/01/10 01:54:34;;;;;;;;;;;;;;;;;;;;;
2023/01/10 01:57:03;;;;;;;;;;;17.90;57.30;;;;;;5042561;28;74159;-84
2023/01/10 01:59:35;;;;;;;;;;;17.90;57.20;;;;;;5028645;28;43079;-83
2023/01/10 02:02:02;;;;;;;;;;;17.90;57.20;;;;;;5047186;28;42956;-82
2023/01/10 02:04:37;;;;;;;;;;;17.90;57.50;;;;;;5046535;28;42832;-81
2023/01/10 02:07:03;;;;;;;;;;;17.90;57.30;;;;;;5047323;28;42974;-83
2023/01/10 02:09:33;;;;;;;;;;;17.60;57.30;;;;;;5028823;28;43146;-83
2023/01/10 02:11:58;;;;;;;;;;;20.10;58.50;;;;;;5046970;28;42958;-81
2023/01/10 02:14:25;;;;;;;;;;;17.90;57.50;;;;;;5046878;28;42886;-79
2023/01/10 02:16:50;;;;;;;;;;;17.90;57.30;;;;;;5046808;28;43665;-82
2023/01/10 02:19:23;;;;;;;;;;;17.90;57.50;;;;;;5044818;28;43114;-80
2023/01/10 02:22:07;;;;;;;;;;;17.90;57.40;;;;;;5036256;28;43743;-79
2023/01/10 02:24:32;;;;;;;;;;;17.90;57.30;;;;;;5046153;28;43182;-79
2023/01/10 02:26:58;;;;;;;;;;;17.90;57.40;;;;;;5046618;28;43524;-79
2023/01/10 02:29:51;;;;;;;;;;;17.90;57.40;;;;;;5046917;28;42970;-80
2023/01/10 02:32:37;;;;;;;;;;;17.90;57.20;;;;;;5046327;28;42928;-81
2023/01/10 02:35:28;;;;;;;;;;;17.90;57.30;;;;;;5045857;28;42829;-79
2023/01/10 02:38:20;;;;;;;;;;;17.90;57.20;;;;;;4997715;28;44717;-82
2023/01/10 02:40:52;;;;;;;;;;;17.90;57.30;;;;;;5047240;28;42786;-79
2023/01/10 02:43:25;;;;;;;;;;;17.90;57.20;;;;;;5047241;28;43576;-80
2023/01/10 02:48:47;;;;;;;;;;;17.90;57.30;;;;;;5026728;28;42737;-80
2023/01/10 02:51:16;;;;;;;;;;;17.90;57.90;;;;;;5028788;28;43181;-81
2023/01/10 02:53:47;;;;;;;;;;;17.90;57.60;;;;;;5046561;28;43745;-80
2023/01/10 02:56:27;;;;;;;;;;;17.90;57.50;;;;;;5053952;28;42914;-79
2023/01/10 02:59:05;;;;;;;;;;;17.90;57.30;;;;;;5066984;28;42835;-81
2023/01/10 03:01:46;;;;;;;;;;;17.80;57.20;;;;;;5052500;28;42882;-83
2023/01/10 03:04:19;;;;;;;;;;;17.90;57.30;;;;;;5063533;28;43257;-80
2023/01/10 03:06:53;;;;;;;;;;;17.80;57.40;;;;;;5062957;28;42727;-84
2023/01/10 03:09:21;;;;;;;;;;;17.90;57.30;;;;;;5063468;28;43418;-82
2023/01/10 03:11:48;;;;;;;;;;;17.90;57.30;;;;;;5048971;28;42909;-85
2023/01/10 03:14:24;;;;;;;;;;;17.90;57.30;;;;;;5046007;28;43681;-84
2023/01/10 03:17:10;;;;;;;;;;;17.90;57.30;;;;;;5045504;28;42954;-80
2023/01/10 03:20:02;;;;;;;;;;;17.90;57.80;;;;;;5045839;28;43130;-83
2023/01/10 03:22:28;;;;;;;;;;;17.90;57.30;;;;;;5042520;28;42733;-82
2023/01/10 03:24:56;;;;;;;;;;;17.90;57.30;;;;;;5046190;28;43512;-84
2023/01/10 03:27:26;;;;;;;;;;;17.90;57.40;;;;;;5028034;28;43138;-83
2023/01/10 03:30:10;;;;;;;;;;;17.90;57.40;;;;;;5046137;28;42970;-84
2023/01/10 03:32:36;;;;;;;;;;;17.80;57.30;;;;;;5046090;28;43148;-81
2023/01/10 03:35:02;;;;;;;;;;;17.90;57.50;;;;;;5045468;28;43011;-83
2023/01/10 03:37:27;;;;;;;;;;;17.90;57.30;;;;;;5046047;28;42929;-83
2023/01/10 03:39:57;;;;;;;;;;;17.80;57.50;;;;;;5045631;28;42860;-84
2023/01/10 03:45:43;;;;;;;;;;;17.00;56.80;;;;;;5045355;28;43178;-83
2023/01/10 03:48:10;;;;;;;;;;;17.90;57.30;;;;;;5045715;28;42974;-84
2023/01/10 03:50:36;;;;;;;;;;;17.90;57.30;;;;;;5045481;28;43023;-84
2023/01/10 03:53:02;;;;;;;;;;;17.80;57.30;;;;;;5027100;28;42996;-84
2023/01/10 03:55:28;;;;;;;;;;;17.90;57.50;;;;;;5027133;28;42941;-83
2023/01/10 03:57:53;;;;;;;;;;;17.60;57.20;;;;;;5045297;28;42942;-84
2023/01/10 04:00:19;;;;;;;;;;;17.80;57.60;;;;;;5045636;28;43336;-84
2023/01/10 04:02:45;;;;;;;;;;;17.80;57.40;;;;;;5026947;28;43151;-84
2023/01/10 04:05:11;;;;;;;;;;;17.80;57.40;;;;;;5044818;28;43827;-80
2023/01/10 04:07:36;;;;;;;;;;;17.80;57.30;;;;;;5044833;28;43026;-83
2023/01/10 04:10:05;;;;;;;;;;;17.80;57.50;;;;;;5045239;28;43507;-84
2023/01/10 04:12:30;;;;;;;;;;;17.80;57.30;;;;;;5045173;28;42932;-83
2023/01/10 04:14:56;;;;;;;;;;;17.80;57.30;;;;;;5045149;28;43276;-84
2023/01/10 04:20:26;;;;;;;;;;;17.90;58.20;;;;;;4962236;28;42972;-83
2023/01/10 04:22:53;;;;;;;;;;;18.00;57.30;;;;;;4963170;28;43158;-84
2023/01/10 04:25:19;;;;;;;;;;;17.80;57.40;;;;;;4962996;28;43120;-83
2023/01/10 04:27:45;;;;;;;;;;;17.80;57.30;;;;;;5095751;22;43181;-83
2023/01/10 04:30:10;;;;;;;;;;;17.80;57.60;;;;;;5043266;28;42975;-83
2023/01/10 04:32:36;;;;;;;;;;;17.80;57.50;;;;;;5045372;28;42989;-84
2023/01/10 04:35:01;;;;;;;;;;;17.80;57.50;;;;;;5044851;28;43170;-82
2023/01/10 04:37:27;;;;;;;;;;;17.80;57.50;;;;;;5043356;28;43003;-84
2023/01/10 04:39:52;;;;;;;;;;;17.80;57.50;;;;;;5044899;28;43296;-82
2023/01/10 04:48:25;;;;;;;;;;;18.80;57.90;;;;;;5041944;28;42962;-79
2023/01/10 04:50:51;;;;;;;;;;;17.80;58.00;;;;;;5041543;28;43246;-82
2023/01/10 04:53:39;;;;;;;;;;;17.80;57.40;;;;;;5042066;28;42929;-83
2023/01/10 04:56:08;;;;;;;;;;;18.30;57.60;;;;;;5040923;28;43003;-79
2023/01/10 04:58:35;;;;;;;;;;;18.30;57.60;;;;;;5041348;28;42936;-82
2023/01/10 05:01:13;;;;;;;;;;;17.80;57.50;;;;;;5040605;28;43039;-82
2023/01/10 05:03:39;;;;;;;;;;;17.70;57.40;;;;;;5024152;28;43099;-81
2023/01/10 05:06:05;;;;;;;;;;;17.80;57.50;;;;;;5040936;28;43359;-83
2023/01/10 05:08:31;;;;;;;;;;;17.80;57.70;;;;;;5042326;28;43015;-80
2023/01/10 05:10:56;;;;;;;;;;;17.80;57.50;;;;;;5042118;28;43901;-79
2023/01/10 05:13:23;;;;;;;;;;;17.80;57.50;;;;;;5042093;28;42912;-82
2023/01/10 05:15:49;;;;;;;;;;;17.80;57.40;;;;;;5041347;28;43802;-82
2023/01/10 05:18:15;;;;;;;;;;;17.90;57.50;;;;;;5024611;28;43263;-83
2023/01/10 05:20:40;;;;;;;;;;;17.80;57.50;;;;;;5043920;28;43171;-82
2023/01/10 05:23:05;;;;;;;;;;;17.90;57.40;;;;;;5044358;28;43056;-80
2023/01/10 05:25:31;;;;;;;;;;;17.80;57.50;;;;;;5047556;28;42938;-79
2023/01/10 05:27:56;;;;;;;;;;;17.80;57.30;;;;;;5077958;28;43240;-80
2023/01/10 05:30:22;;;;;;;;;;;17.80;57.30;;;;;;5079593;28;43036;-84
2023/01/10 05:32:48;;;;;;;;;;;17.80;57.60;;;;;;5057615;28;42896;-84
2023/01/10 05:35:13;;;;;;;;;;;17.80;57.60;;;;;;5069976;28;43622;-80
2023/01/10 05:37:39;;;;;;;;;;;17.80;57.30;;;;;;5067317;28;43035;-79
2023/01/10 05:40:05;;;;;;;;;;;17.80;57.30;;;;;;5069789;28;43118;-83
2023/01/10 05:42:30;;;;;;;;;;;17.80;57.30;;;;;;5076789;28;42899;-80
2023/01/10 05:44:56;;;;;;;;;;;17.80;57.20;;;;;;5068293;28;43142;-80
2023/01/10 05:47:21;;;;;;;;;;;17.80;57.40;;;;;;5069798;28;43503;-79
2023/01/10 05:49:47;;;;;;;;;;;17.80;57.30;;;;;;5066961;28;43629;-80
2023/01/10 05:52:13;;;;;;;;;;;17.80;57.30;;;;;;5046276;28;42920;-80
2023/01/10 05:54:39;;;;;;;;;;;17.80;57.20;;;;;;5067337;28;43062;-78
2023/01/10 05:57:05;;;;;;;;;;;17.80;57.40;;;;;;5067137;28;42828;-79
2023/01/10 05:59:30;;;;;;;;;;;17.80;57.40;;;;;;5067385;28;42879;-79
2023/01/10 06:01:56;;;;;;;;;;;17.80;57.40;;;;;;5067339;28;43378;-77
2023/01/10 06:04:21;;;;;;;;;;;17.80;57.30;;;;;;5048014;28;44734;-77
2023/01/10 06:06:47;;;;;;;;;;;17.50;45.80;;;;;;5067284;28;42979;-78
2023/01/10 06:09:12;;;;;;;;;;;17.20;42.30;;;;;;5066595;28;42986;-74
2023/01/10 06:11:38;;;;;;;;;;;16.80;41.80;;;;;;5063714;28;42868;-76
2023/01/10 06:14:04;;;;;;;;;;;16.60;40.70;;;;;;5066847;28;42958;-78
2023/01/10 06:16:29;;;;;;;;;;;16.40;40.90;;;;;;5064871;28;43063;-77
2023/01/10 06:18:55;;;;;;;;;;;16.10;41.00;;;;;;5056481;28;43001;-77
2023/01/10 06:21:21;;;;;;;;;;;15.80;41.60;;;;;;5066653;28;42907;-76
2023/01/10 06:23:46;;;;;;;;;;;15.60;40.70;;;;;;5066685;28;42943;-78
2023/01/10 06:26:12;;;;;;;;;;;15.70;40.00;;;;;;5067056;28;42862;-77
2023/01/10 06:28:39;;;;;;;;;;;15.40;39.30;;;;;;5064872;28;42915;-77
2023/01/10 06:31:06;;;;;;;;;;;15.30;40.10;;;;;;5066887;28;42942;-74
2023/01/10 06:33:31;;;;;;;;;;;15.20;39.40;;;;;;5066579;28;43793;-75
2023/01/10 06:35:57;;;;;;;;;;;15.00;39.80;;;;;;5066218;28;42941;-75
2023/01/10 06:38:22;;;;;;;;;;;14.90;39.60;;;;;;5067582;28;43013;-74
2023/01/10 06:40:49;;;;;;;;;;;14.90;40.20;;;;;;5066693;28;43077;-76
2023/01/10 06:43:14;;;;;;;;;;;15.00;39.90;;;;;;5065143;28;42829;-77
2023/01/10 06:45:40;;;;;;;;;;;15.10;39.70;;;;;;5068767;28;43075;-76
2023/01/10 06:48:05;;;;;;;;;;;15.30;39.00;;;;;;5066096;28;42903;-77
2023/01/10 06:50:31;;;;;;;;;;;15.20;39.20;;;;;;5066384;28;42939;-76
2023/01/10 06:53:00;;;;;;;;;;;15.10;39.20;;;;;;5066373;28;43243;-77
2023/01/10 06:55:26;;;;;;;;;;;15.10;39.20;;;;;;5067026;28;42800;-78
2023/01/10 06:57:56;;;;;;;;;;;15.00;39.10;;;;;;5066823;28;42779;-76
2023/01/10 07:00:21;;;;;;;;;;;14.80;39.50;;;;;;5066879;28;43041;-76
2023/01/10 07:02:47;;;;;;;;;;;14.70;39.80;;;;;;5066650;28;43761;-78
2023/01/10 07:05:12;;;;;;;;;;;14.80;40.00;;;;;;5066308;28;42858;-77
2023/01/10 07:07:38;;;;;;;;;;;14.60;38.70;;;;;;5066080;28;43017;-76
2023/01/10 07:10:04;;;;;;;;;;;14.30;39.70;;;;;;5066374;28;42941;-77
2023/01/10 07:12:29;;;;;;;;;;;14.30;39.80;;;;;;5066235;28;43611;-77
2023/01/10 07:14:55;;;;;;;;;;;14.40;40.10;;;;;;5066346;28;42978;-77
2023/01/10 07:17:20;;;;;;;;;;;14.30;39.30;;;;;;5066168;28;43543;-76
2023/01/10 07:19:46;;;;;;;;;;;14.10;39.50;;;;;;5066557;28;42962;-76
2023/01/10 07:22:12;;;;;;;;;;;14.00;40.00;;;;;;5048687;28;43352;-76
2023/01/10 07:24:37;;;;;;;;;;;15.70;41.10;;;;;;5066751;28;42829;-77
2023/01/10 07:27:03;;;;;;;;;;;14.00;39.90;;;;;;5065854;28;42845;-76
2023/01/10 07:29:28;;;;;;;;;;;14.10;39.80;;;;;;5066548;28;42796;-76
2023/01/10 07:31:53;;;;;;;;;;;14.40;39.70;;;;;;5066208;28;43837;-78
2023/01/10 07:34:19;;;;;;;;;;;14.50;39.40;;;;;;5066322;28;42820;-76
2023/01/10 07:36:44;;;;;;;;;;;14.60;39.00;;;;;;5065430;28;43567;-76
2023/01/10 07:39:10;;;;;;;;;;;14.60;39.00;;;;;;5065993;28;42979;-76
2023/01/10 07:41:35;;;;;;;;;;;14.30;38.90;;;;;;5065856;28;42982;-77
2023/01/10 07:44:01;;;;;;;;;;;14.20;39.40;;;;;;5066586;28;42947;-75
2023/01/10 07:46:26;;;;;;;;;;;14.30;39.60;;;;;;5065948;28;42963;-75
2023/01/10 07:48:52;;;;;;;;;;;14.30;39.40;;;;;;5065839;28;42912;-75
2023/01/10 07:51:17;;;;;;;;;;;14.30;39.40;;;;;;5066380;28;43477;-78
2023/01/10 07:53:43;;;;;;;;;;;14.30;39.60;;;;;;5073299;28;42923;-78
2023/01/10 07:56:08;;;;;;;;;;;14.20;39.30;;;;;;5067590;28;42943;-77
2023/01/10 07:58:34;;;;;;;;;;;14.20;39.50;;;;;;5066999;28;42923;-76
2023/01/10 08:01:01;;;;;;;;;;;14.10;39.70;;;;;;5065291;28;43187;-77
2023/01/10 08:03:26;;;;;;;;;;;14.10;39.70;;;;;;5064986;28;43264;-76
2023/01/10 08:06:02;;;;;;;;;;;14.00;40.10;;;;;;5065977;28;43437;-77
2023/01/10 08:08:28;;;;;;;;;;;14.00;40.30;;;;;;5066119;28;43059;-77
2023/01/10 08:10:54;;;;;;;;;;;14.10;40.60;;;;;;5047887;28;43782;-76
2023/01/10 08:13:19;;;;;;;;;;;14.10;40.30;;;;;;5066086;28;42936;-77
2023/01/10 08:15:46;;;;;;;;;;;14.10;40.60;;;;;;5048403;28;42994;-77
2023/01/10 08:18:11;;;;;;;;;;;14.30;40.70;;;;;;5066105;28;43026;-77
2023/01/10 08:20:37;;;;;;;;;;;14.30;40.60;;;;;;5066230;28;43339;-77
2023/01/10 08:23:03;;;;;;;;;;;14.40;40.30;;;;;;5066356;28;43006;-78
2023/01/10 08:25:28;;;;;;;;;;;14.50;40.40;;;;;;5065385;28;43443;-79
2023/01/10 08:27:54;;;;;;;;;;;14.20;40.40;;;;;;5065297;28;42895;-76
2023/01/10 08:30:20;;;;;;;;;;;14.30;40.40;;;;;;5064615;28;42923;-77
2023/01/10 08:32:45;;;;;;;;;;;14.30;39.40;;;;;;5065243;28;42951;-78
2023/01/10 08:35:11;;;;;;;;;;;14.50;40.30;;;;;;5065109;28;43517;-77
2023/01/10 08:37:36;;;;;;;;;;;14.60;40.00;;;;;;5065875;28;42917;-77
2023/01/10 08:40:02;;;;;;;;;;;14.70;40.10;;;;;;5065547;28;42939;-77
2023/01/10 08:42:27;;;;;;;;;;;14.60;39.60;;;;;;5065600;28;43485;-77
2023/01/10 08:44:53;;;;;;;;;;;14.60;39.60;;;;;;5046598;28;42866;-77
2023/01/10 08:47:19;;;;;;;;;;;14.40;38.30;;;;;;5046957;28;43098;-76
2023/01/10 08:49:45;;;;;;;;;;;14.10;39.80;;;;;;5065437;28;43731;-78
2023/01/10 08:52:11;;;;;;;;;;;12.40;38.80;;;;;;5065194;28;42924;-77
2023/01/10 08:54:37;;;;;;;;;;;14.20;37.20;;;;;;5065184;28;42998;-76
2023/01/10 08:57:02;;;;;;;;;;;14.40;37.10;;;;;;5065341;28;43004;-76
2023/01/10 08:59:28;;;;;;;;;;;14.40;36.20;;;;;;5065704;28;44145;-77
2023/01/10 09:01:53;;;;;;;;;;;14.50;37.90;;;;;;5064615;28;42983;-77
2023/01/10 09:04:19;;;;;;;;;;;14.50;38.80;;;;;;5068339;28;42998;-77
2023/01/10 09:06:45;;;;;;;;;;;14.70;38.20;;;;;;5068835;28;43133;-75
2023/01/10 09:09:10;;;;;;;;;;;14.80;35.00;;;;;;5068591;28;43550;-77
2023/01/10 09:11:36;;;;;;;;;;;14.80;34.30;;;;;;5068913;28;42815;-77
2023/01/10 09:14:01;;;;;;;;;;;15.00;34.00;;;;;;5068567;28;42959;-76
2023/01/10 09:16:27;;;;;;;;;;;15.00;34.10;;;;;;5068606;28;42846;-76
2023/01/10 09:18:54;;;;;;;;;;;14.90;33.50;;;;;;5068477;28;42792;-77
2023/01/10 09:21:20;;;;;;;;;;;14.90;32.70;;;;;;5068327;28;42970;-78
2023/01/10 09:23:45;;;;;;;;;;;14.80;33.10;;;;;;5068797;28;42749;-77
2023/01/10 09:26:11;;;;;;;;;;;15.00;33.20;;;;;;5067836;28;42942;-78
2023/01/10 09:28:36;;;;;;;;;;;14.80;31.30;;;;;;5067945;28;43405;-77
2023/01/10 09:31:03;;;;;;;;;;;14.70;31.80;;;;;;5067884;28;42881;-77
2023/01/10 09:33:29;;;;;;;;;;;14.80;31.20;;;;;;5067867;28;43544;-77
2023/01/10 09:35:56;;;;;;;;;;;14.90;31.00;;;;;;5067818;28;42986;-78
2023/01/10 09:38:21;;;;;;;;;;;14.80;29.30;;;;;;5067486;28;43500;-76
2023/01/10 09:40:50;;;;;;;;;;;14.90;31.80;;;;;;5068165;28;42971;-77
2023/01/10 09:43:15;;;;;;;;;;;14.90;30.30;;;;;;5049904;28;43471;-77
2023/01/10 09:45:59;;;;;;;;;;;14.90;30.70;;;;;;5067927;28;42930;-77
2023/01/10 09:48:44;;;;;;;;;;;14.90;29.80;;;;;;5066587;28;42730;-78
2023/01/10 09:51:09;;;;;;;;;;;14.90;29.60;;;;;;5067947;28;42749;-77
2023/01/10 09:53:36;;;;;;;;;;;15.00;31.40;;;;;;5067678;28;42859;-77
2023/01/10 09:56:03;;;;;;;;;;;15.00;31.20;;;;;;5068044;28;42915;-77
2023/01/10 09:58:30;;;;;;;;;;;14.90;30.60;;;;;;5067626;28;43029;-77
2023/01/10 10:00:57;;;;;;;;;;;14.80;30.10;;;;;;5067828;28;42770;-77
2023/01/10 10:03:22;;;;;;;;;;;14.90;31.00;;;;;;5067555;28;43847;-76
2023/01/10 10:05:48;;;;;;;;;;;14.90;29.90;;;;;;5067781;28;42785;-77
2023/01/10 10:08:15;;;;;;;;;;;14.70;29.30;;;;;;5067532;28;43517;-77
2023/01/10 10:11:09;;;;;;;;;;;14.90;30.40;;;;;;5067563;28;43014;-78
2023/01/10 10:13:54;;;;;;;;;;;15.00;31.20;;;;;;5050601;28;42819;-77
2023/01/10 10:16:46;;;;;;;;;;;15.10;31.40;;;;;;5067087;28;42934;-77
2023/01/10 10:19:14;;;;;;;;;;;15.20;31.20;;;;;;5067073;28;43868;-75
2023/01/10 10:21:46;;;;;;;;;;;15.30;29.80;;;;;;5048056;28;43041;-77
2023/01/10 10:24:26;;;;;;;;;;;15.20;30.80;;;;;;5067069;28;43120;-77
2023/01/10 10:26:52;;;;;;;;;;;15.20;29.40;;;;;;5067462;28;42954;-76
2023/01/10 10:29:24;;;;;;;;;;;15.20;29.70;;;;;;5067331;28;43898;-77
2023/01/10 10:32:15;;;;;;;;;;;15.30;30.10;;;;;;5067411;28;42923;-76
2023/01/10 10:34:44;;;;;;;;;;;15.40;30.00;;;;;;5066581;28;43473;-77
2023/01/10 10:37:32;;;;;;;;;;;15.40;30.70;;;;;;5067411;28;42789;-77
2023/01/10 10:40:02;;;;;;;;;;;15.50;30.00;;;;;;5067138;28;42911;-77
2023/01/10 10:42:36;;;;;;;;;;;15.50;30.70;;;;;;5067049;28;42813;-77
2023/01/10 10:45:04;;;;;;;;;;;15.50;29.00;;;;;;5066850;28;43837;-76
2023/01/10 10:47:33;;;;;;;;;;;15.40;28.20;;;;;;5066893;28;42755;-77
2023/01/10 10:50:14;;;;;;;;;;;15.40;28.10;;;;;;5066896;28;42896;-76
2023/01/10 10:52:40;;;;;;;;;;;15.50;29.00;;;;;;5066927;28;42746;-77
2023/01/10 10:55:11;;;;;;;;;;;15.50;29.40;;;;;;5066261;28;43816;-76
2023/01/10 10:57:37;;;;;;;;;;;15.40;28.30;;;;;;5066347;28;43133;-77
2023/01/10 11:00:04;;;;;;;;;;;15.50;29.90;;;;;;5066029;28;42950;-78
2023/01/10 11:02:30;;;;;;;;;;;15.60;30.10;;;;;;5047936;28;42992;-76
2023/01/10 11:05:03;;;;;;;;;;;15.70;30.10;;;;;;5066428;28;43367;-77
2023/01/10 11:07:33;;;;;;;;;;;15.70;28.80;;;;;;5066100;28;42765;-76
2023/01/10 11:12:30;;;;;;;;;;;15.70;30.40;;;;;;5065959;28;43577;-75
2023/01/10 11:14:56;;;;;;;;;;;15.80;30.40;;;;;;5065633;28;43034;-77
2023/01/10 11:17:24;;;;;;;;;;;15.80;30.10;;;;;;5066122;28;42901;-78
2023/01/10 11:20:13;;;;;;;;;;;15.80;29.50;;;;;;5065038;28;42833;-78
2023/01/10 11:22:43;;;;;;;;;;;15.90;31.00;;;;;;5059926;28;43068;-75
2023/01/10 11:25:14;;;;;;;;;;;16.00;30.00;;;;;;5065136;28;42971;-78
2023/01/10 11:28:00;;;;;;;;;;;15.90;29.60;;;;;;5066067;28;42808;-78
2023/01/10 11:30:32;;;;;;;;;;;15.80;29.20;;;;;;5066300;28;42877;-76
2023/01/10 11:33:03;;;;;;;;;;;15.80;28.30;;;;;;5065719;28;42981;-77
2023/01/10 11:35:34;;;;;;;;;;;15.70;28.10;;;;;;5066319;28;42955;-78
2023/01/10 11:38:17;;;;;;;;;;;15.80;28.50;;;;;;5065547;28;42987;-77
2023/01/10 11:41:01;;;;;;;;;;;15.90;29.70;;;;;;5066036;28;43605;-77
2023/01/10 11:43:29;;;;;;;;;;;15.80;27.60;;;;;;5062293;28;42860;-79
2023/01/10 11:45:56;;;;;;;;;;;15.80;29.60;;;;;;5055230;28;43519;-78
2023/01/10 11:48:23;;;;;;;;;;;15.90;30.80;;;;;;5045312;28;42995;-79
2023/01/10 11:50:49;;;;;;;;;;;15.90;30.00;;;;;;5045704;28;43475;-76
2023/01/10 11:53:30;;;;;;;;;;;15.90;29.40;;;;;;5063000;28;43039;-78
2023/01/10 11:55:56;;;;;;;;;;;16.00;30.10;;;;;;5065534;28;42997;-76
2023/01/10 11:58:21;;;;;;;;;;;15.90;29.20;;;;;;5048400;28;42981;-75
2023/01/10 12:00:48;;;;;;;;;;;16.00;29.90;;;;;;5076113;28;43908;-75
2023/01/10 12:03:16;;;;;;;;;;;16.10;29.90;;;;;;5075343;28;43305;-76
2023/01/10 12:05:48;;;;;;;;;;;16.10;29.90;;;;;;5065066;28;43151;-75
2023/01/10 12:08:24;;;;;;;;;;;16.10;29.10;;;;;;5075026;28;43088;-79
2023/01/10 12:10:57;;;;;;;;;;;16.10;28.50;;;;;;5071933;28;43673;-81
2023/01/10 12:13:22;;;;;;;;;;;16.10;28.80;;;;;;5055069;28;42982;-78
2023/01/10 12:15:48;;;;;;;;;;;16.10;28.90;;;;;;5075424;28;43415;-78
2023/01/10 12:18:16;;;;;;;;;;;16.10;30.00;;;;;;5075275;28;43037;-75
2023/01/10 12:20:46;;;;;;;;;;;16.10;30.00;;;;;;5055385;28;44319;-90
2023/01/10 12:23:17;;;;;;;;;;;16.20;30.20;;;;;;5073798;28;60557;-79
2023/01/10 12:25:44;;;;;;;;;;;16.20;30.80;;;;;;5064884;28;43586;-82
2023/01/10 12:28:19;;;;;;;;;;;16.10;28.20;;;;;;5074388;28;42913;-85
2023/01/10 12:30:50;;;;;;;;;;;16.00;28.50;;;;;;5073927;28;43641;-86
2023/01/10 12:33:17;;;;;;;;;;;16.00;29.50;;;;;;5074591;28;43000;-86
2023/01/10 12:35:43;;;;;;;;;;;16.10;28.80;;;;;;5075398;28;42959;-87
2023/01/10 12:38:20;;;;;;;;;;;16.10;28.40;;;;;;5066323;28;43008;-86
2023/01/10 12:40:51;;;;;;;;;;;16.10;28.70;;;;;;5069687;28;44437;-85
2023/01/10 12:46:20;;;;;;;;;;;16.10;28.60;;;;;;5073782;28;43174;-84
2023/01/10 12:48:51;;;;;;;;;;;16.10;28.00;;;;;;5068034;28;43228;-85
2023/01/10 12:51:19;;;;;;;;;;;16.10;28.10;;;;;;5071033;28;43035;-86
2023/01/10 12:53:48;;;;;;;;;;;16.10;28.10;;;;;;5064589;28;42944;-84
2023/01/10 12:56:15;;;;;;;;;;;16.10;28.50;;;;;;5074901;28;42881;-86
2023/01/10 12:58:46;;;;;;;;;;;16.10;28.90;;;;;;5073736;28;43002;-85
2023/01/10 13:01:14;;;;;;;;;;;16.10;28.50;;;;;;5074497;28;42771;-83
2023/01/10 13:03:39;;;;;;;;;;;16.10;28.30;;;;;;5070792;28;42998;-79
2023/01/10 13:06:05;;;;;;;;;;;16.00;28.10;;;;;;5088601;28;43470;-77
2023/01/10 13:08:32;;;;;;;;;;;16.00;28.20;;;;;;5063641;28;43421;-82
2023/01/10 13:10:58;;;;;;;;;;;15.90;28.30;;;;;;5075783;28;42913;-82
2023/01/10 13:13:30;;;;;;;;;;;15.90;27.90;;;;;;5059407;28;42969;-84
2023/01/10 13:15:55;;;;;;;;;;;15.90;28.20;;;;;;5070582;28;43890;-82
2023/01/10 13:18:28;;;;;;;;;;;15.90;28.30;;;;;;5050626;28;42960;-81
2023/01/10 13:21:12;;;;;;;;;;;15.80;28.00;;;;;;5074031;28;43660;-82
2023/01/10 13:23:58;;;;;;;;;;;15.80;28.60;;;;;;5069660;28;43103;-82
2023/01/10 13:26:24;;;;;;;;;;;15.90;28.70;;;;;;5071431;28;43128;-80
2023/01/10 13:28:57;;;;;;;;;;;15.80;28.40;;;;;;5063553;28;43054;-77
2023/01/10 13:31:22;;;;;;;;;;;15.90;28.80;;;;;;5065357;28;43072;-76
2023/01/10 13:33:50;;;;;;;;;;;15.80;28.70;;;;;;5061219;28;42824;-82
2023/01/10 13:36:18;;;;;;;;;;;15.90;28.60;;;;;;5063756;28;42986;-80
2023/01/10 13:39:03;;;;;;;;;;;15.90;29.00;;;;;;5063476;28;43083;-78
2023/01/10 13:44:52;;;;;;;;;;;16.00;28.90;;;;;;5042825;28;42961;-83
2023/01/10 13:47:36;;;;;;;;;;;16.00;28.40;;;;;;5042688;28;43048;-81
2023/01/10 13:50:27;;;;;;;;;;;16.00;28.10;;;;;;5047390;28;42936;-82
2023/01/10 13:52:53;;;;;;;;;;;16.00;27.80;;;;;;5046027;28;43607;-81
2023/01/10 13:55:33;;;;;;;;;;;16.10;28.80;;;;;;5047754;28;42923;-81
2023/01/10 14:04:19;;;;;;;;;;;16.30;29.00;;;;;;5047517;28;43027;-81
2023/01/10 14:07:05;;;;;;;;;;;16.30;28.00;;;;;;5045388;28;43144;-83
2023/01/10 14:09:30;;;;;;;;;;;16.30;28.50;;;;;;5046259;28;43689;-82
2023/01/10 14:12:01;;;;;;;;;;;16.20;27.70;;;;;;5045823;28;43133;-78
2023/01/10 14:14:28;;;;;;;;;;;16.20;27.60;;;;;;5046334;28;43230;-82
2023/01/10 14:16:55;;;;;;;;;;;16.10;27.30;;;;;;5046946;28;42952;-80
2023/01/10 14:19:28;;;;;;;;;;;16.20;28.30;;;;;;5046505;28;43961;-78
2023/01/10 14:21:55;;;;;;;;;;;16.30;28.90;;;;;;5047306;28;43093;-81
2023/01/10 14:24:24;;;;;;;;;;;16.30;28.80;;;;;;5046768;28;45300;-74
2023/01/10 14:26:51;;;;;;;;;;;16.30;28.00;;;;;;5047008;28;42942;-82
2023/01/10 14:29:17;;;;;;;;;;;16.30;27.60;;;;;;5046876;28;42913;-75
2023/01/10 14:31:47;;;;;;;;;;;16.30;28.60;;;;;;5046637;28;42868;-75
2023/01/10 14:34:19;;;;;;;;;;;16.30;28.10;;;;;;5046461;28;43497;-81
2023/01/10 14:36:59;;;;;;;;;;;16.20;26.80;;;;;;5046424;28;43142;-82
2023/01/10 14:39:26;;;;;;;;;;;16.20;27.70;;;;;;5027216;28;43913;-81
2023/01/10 14:41:53;;;;;;;;;;;16.20;28.00;;;;;;5046948;28;42966;-83
2023/01/10 14:44:25;;;;;;;;;;;16.30;27.80;;;;;;5046895;28;42883;-79
2023/01/10 14:46:52;;;;;;;;;;;16.30;27.20;;;;;;5046634;28;43008;-81
2023/01/10 14:49:25;;;;;;;;;;;16.30;27.10;;;;;;5045777;28;43633;-81
2023/01/10 14:51:51;;;;;;;;;;;16.20;27.30;;;;;;5046187;28;42947;-80
2023/01/10 14:54:19;;;;;;;;;;;16.30;28.00;;;;;;5045767;28;43396;-79
2023/01/10 14:56:48;;;;;;;;;;;16.30;28.00;;;;;;5046395;28;42963;-81
2023/01/10 14:59:27;;;;;;;;;;;16.20;26.90;;;;;;5045713;28;43517;-81
2023/01/10 15:01:54;;;;;;;;;;;16.20;27.70;;;;;;5046088;28;42928;-82
2023/01/10 15:04:21;;;;;;;;;;;16.20;27.20;;;;;;5046812;28;43393;-81
2023/01/10 15:06:56;;;;;;;;;;;16.20;27.50;;;;;;5046040;28;43026;-81
2023/01/10 15:09:22;;;;;;;;;;;16.20;27.30;;;;;;5045843;28;42889;-81
2023/01/10 15:11:49;;;;;;;;;;;16.20;27.10;;;;;;5046538;28;42914;-80
2023/01/10 15:14:19;;;;;;;;;;;16.30;27.80;;;;;;5046231;28;42995;-77
2023/01/10 15:16:45;;;;;;;;;;;16.20;27.40;;;;;;5046236;28;42956;-82
2023/01/10 15:19:15;;;;;;;;;;;16.10;27.40;;;;;;5045979;28;42834;-79
2023/01/10 15:21:42;;;;;;;;;;;16.10;27.70;;;;;;5046368;28;42719;-82